createdAt,value
2019-02-06T00:00:26.542Z,3.65
2019-02-06T00:01:22.361Z,3.78
2019-02-06T00:02:21.352Z,3.64
2019-02-06T00:03:21.357Z,3.78
2019-02-06T00:04:21.329Z,3.68
2019-02-06T00:05:21.319Z,3.72
2019-02-06T00:06:21.304Z,3.78
2019-02-06T00:07:21.295Z,3.76
2019-02-06T00:08:21.285Z,3.72
2019-02-06T00:09:21.274Z,3.70
2019-02-06T00:10:21.262Z,3.78
2019-02-06T00:11:21.266Z,3.83
2019-02-06T00:12:21.240Z,3.76
2019-02-06T00:13:39.378Z,3.75
2019-02-06T00:15:03.291Z,3.75
2019-02-06T00:16:03.283Z,3.68
2019-02-06T00:17:03.283Z,3.72
2019-02-06T00:18:03.234Z,3.71
2019-02-06T00:19:03.225Z,3.71
2019-02-06T00:20:03.213Z,3.67
2019-02-06T00:21:03.212Z,3.71
2019-02-06T00:22:03.193Z,3.70
2019-02-06T00:23:03.206Z,3.67
2019-02-06T00:24:03.168Z,3.71
2019-02-06T00:25:03.157Z,3.70
2019-02-06T00:26:03.159Z,3.71
2019-02-06T00:27:03.137Z,3.68
2019-02-06T00:28:03.123Z,3.76
2019-02-06T00:29:03.112Z,3.70
2019-02-06T00:30:03.101Z,3.71
2019-02-06T00:31:03.088Z,3.62
2019-02-06T00:32:03.081Z,3.70
2019-02-06T00:33:03.068Z,3.70
2019-02-06T00:34:03.056Z,3.67
2019-02-06T00:35:03.051Z,3.72
2019-02-06T00:36:03.034Z,3.75
2019-02-06T00:37:03.024Z,3.71
2019-02-06T00:38:05.332Z,3.68
2019-02-06T00:39:03.005Z,3.70
2019-02-06T00:40:02.990Z,3.68
2019-02-06T00:41:02.978Z,3.68
2019-02-06T00:42:02.970Z,3.68
2019-02-06T00:43:02.961Z,3.61
2019-02-06T00:44:02.943Z,3.67
2019-02-06T00:45:02.936Z,3.67
2019-02-06T00:46:02.925Z,3.67
2019-02-06T00:47:02.913Z,3.72
2019-02-06T00:48:02.900Z,3.67
2019-02-06T00:49:02.890Z,3.70
2019-02-06T00:50:02.878Z,3.62
2019-02-06T00:51:02.868Z,3.68
2019-02-06T00:52:02.857Z,3.65
2019-02-06T00:53:02.848Z,3.60
2019-02-06T00:54:02.834Z,3.67
2019-02-06T00:55:02.826Z,3.76
2019-02-06T00:56:02.812Z,3.70
2019-02-06T00:57:02.801Z,3.60
2019-02-06T00:58:02.790Z,3.70
2019-02-06T00:59:02.781Z,3.65
2019-02-06T01:00:02.774Z,3.62
2019-02-06T01:01:02.777Z,3.64
2019-02-06T01:02:02.749Z,3.54
2019-02-06T01:03:02.737Z,3.64
2019-02-06T01:04:02.726Z,3.64
2019-02-06T01:05:02.712Z,3.71
2019-02-06T01:06:02.703Z,3.61
2019-02-06T01:07:02.691Z,3.61
2019-02-06T01:08:02.680Z,3.60
2019-02-06T01:09:02.669Z,3.62
2019-02-06T01:10:02.656Z,3.68
2019-02-06T01:11:02.667Z,3.61
2019-02-06T01:12:02.638Z,3.72
2019-02-06T01:13:02.623Z,3.65
2019-02-06T01:14:02.612Z,3.68
2019-02-06T01:15:02.604Z,3.65
2019-02-06T01:16:02.589Z,3.57
2019-02-06T01:17:02.628Z,3.61
2019-02-06T01:18:02.568Z,3.62
2019-02-06T01:19:02.558Z,3.60
2019-02-06T01:20:02.545Z,3.61
2019-02-06T01:21:02.537Z,3.58
2019-02-06T01:22:02.527Z,3.61
2019-02-06T01:23:02.512Z,3.62
2019-02-06T01:24:02.520Z,3.53
2019-02-06T01:25:02.490Z,3.53
2019-02-06T01:26:02.479Z,3.64
2019-02-06T01:27:02.469Z,3.58
2019-02-06T01:28:02.457Z,3.68
2019-02-06T01:29:02.446Z,3.68
2019-02-06T01:30:02.437Z,3.68
2019-02-06T01:31:02.425Z,3.65
2019-02-06T01:32:02.413Z,3.61
2019-02-06T01:33:02.404Z,3.65
2019-02-06T01:34:02.390Z,3.70
2019-02-06T01:35:02.381Z,3.67
2019-02-06T01:36:02.368Z,3.58
2019-02-06T01:37:02.358Z,3.68
2019-02-06T01:38:02.364Z,3.65
2019-02-06T01:39:02.442Z,3.65
2019-02-06T01:40:02.327Z,3.64
2019-02-06T01:41:02.315Z,3.65
2019-02-06T01:42:02.301Z,3.65
2019-02-06T01:43:02.289Z,3.70
2019-02-06T01:44:02.285Z,3.67
2019-02-06T01:45:02.270Z,3.64
2019-02-06T01:46:02.258Z,3.70
2019-02-06T01:47:02.254Z,3.62
2019-02-06T01:48:02.233Z,3.67
2019-02-06T01:49:02.225Z,3.65
2019-02-06T01:50:02.213Z,3.64
2019-02-06T01:51:02.203Z,3.65
2019-02-06T01:52:02.204Z,3.54
2019-02-06T01:53:02.180Z,3.60
2019-02-06T01:54:02.172Z,3.58
2019-02-06T01:55:02.158Z,3.52
2019-02-06T01:56:02.148Z,3.60
2019-02-06T01:57:02.136Z,3.60
2019-02-06T01:58:02.162Z,3.53
2019-02-06T01:59:02.120Z,3.58
2019-02-06T02:00:02.103Z,3.53
2019-02-06T02:01:02.093Z,3.53
2019-02-06T02:02:02.079Z,3.53
2019-02-06T02:03:02.068Z,3.61
2019-02-06T02:04:02.058Z,3.52
2019-02-06T02:05:02.058Z,3.54
2019-02-06T02:06:02.865Z,3.57
2019-02-06T02:07:02.026Z,3.53
2019-02-06T02:08:02.020Z,3.57
2019-02-06T02:09:02.002Z,3.60
2019-02-06T02:10:01.994Z,3.53
2019-02-06T02:11:01.982Z,3.58
2019-02-06T02:12:01.969Z,3.64
2019-02-06T02:13:01.960Z,3.65
2019-02-06T02:14:01.950Z,3.58
2019-02-06T02:15:01.938Z,3.67
2019-02-06T02:16:01.925Z,3.64
2019-02-06T02:17:01.912Z,3.67
2019-02-06T02:18:01.917Z,3.57
2019-02-06T02:19:01.891Z,3.71
2019-02-06T02:20:01.886Z,3.65
2019-02-06T02:21:01.868Z,3.68
2019-02-06T02:22:01.873Z,3.70
2019-02-06T02:23:01.847Z,3.58
2019-02-06T02:24:01.848Z,3.70
2019-02-06T02:25:01.846Z,3.54
2019-02-06T02:26:01.815Z,3.61
2019-02-06T02:27:01.803Z,3.53
2019-02-06T02:28:01.792Z,3.50
2019-02-06T02:29:01.780Z,3.50
2019-02-06T02:30:01.777Z,3.50
2019-02-06T02:31:01.758Z,3.46
2019-02-06T02:32:01.761Z,3.49
2019-02-06T02:33:01.737Z,3.52
2019-02-06T02:34:01.726Z,3.49
2019-02-06T02:35:01.717Z,3.52
2019-02-06T02:36:14.303Z,3.50
2019-02-06T02:37:02.701Z,3.57
2019-02-06T02:38:01.680Z,3.52
2019-02-06T02:39:01.671Z,3.49
2019-02-06T02:40:01.675Z,3.47
2019-02-06T02:41:01.651Z,3.49
2019-02-06T02:42:01.636Z,3.53
2019-02-06T02:43:01.626Z,3.60
2019-02-06T02:44:01.617Z,3.50
2019-02-06T02:45:01.606Z,3.50
2019-02-06T02:46:01.591Z,3.57
2019-02-06T02:47:01.582Z,3.53
2019-02-06T02:48:01.570Z,3.57
2019-02-06T02:49:01.558Z,3.54
2019-02-06T02:50:01.564Z,3.53
2019-02-06T02:51:01.541Z,3.50
2019-02-06T02:52:01.529Z,3.61
2019-02-06T02:53:01.512Z,3.52
2019-02-06T02:54:01.503Z,3.52
2019-02-06T02:55:01.492Z,3.49
2019-02-06T02:56:01.483Z,3.53
2019-02-06T02:57:01.470Z,3.52
2019-02-06T02:58:01.458Z,3.58
2019-02-06T02:59:01.448Z,3.58
2019-02-06T03:00:01.440Z,3.61
2019-02-06T03:01:01.426Z,3.61
2019-02-06T03:02:01.415Z,3.61
2019-02-06T03:03:01.404Z,3.57
2019-02-06T03:04:01.394Z,3.54
2019-02-06T03:05:01.383Z,3.49
2019-02-06T03:06:01.370Z,3.53
2019-02-06T03:07:01.357Z,3.54
2019-02-06T03:08:01.350Z,3.60
2019-02-06T03:09:01.354Z,3.53
2019-02-06T03:10:01.325Z,3.49
2019-02-06T03:11:01.315Z,3.57
2019-02-06T03:12:01.304Z,3.53
2019-02-06T03:13:01.295Z,3.60
2019-02-06T03:14:01.288Z,3.57
2019-02-06T03:15:01.270Z,3.54
2019-02-06T03:16:01.261Z,3.53
2019-02-06T03:17:03.398Z,3.57
2019-02-06T03:18:01.236Z,3.57
2019-02-06T03:19:01.224Z,3.60
2019-02-06T03:20:01.222Z,3.53
2019-02-06T03:21:01.205Z,3.53
2019-02-06T03:22:01.196Z,3.60
2019-02-06T03:23:01.182Z,3.58
2019-02-06T03:24:01.172Z,3.60
2019-02-06T03:25:01.169Z,3.68
2019-02-06T03:26:01.150Z,3.64
2019-02-06T03:27:01.162Z,3.61
2019-02-06T03:28:01.125Z,3.61
2019-02-06T03:29:01.113Z,3.68
2019-02-06T03:30:01.116Z,3.57
2019-02-06T03:31:01.098Z,3.57
2019-02-06T03:32:01.095Z,3.57
2019-02-06T03:33:01.072Z,3.52
2019-02-06T03:34:01.064Z,3.57
2019-02-06T03:35:01.052Z,3.60
2019-02-06T03:36:01.047Z,3.53
2019-02-06T03:37:01.034Z,3.64
2019-02-06T03:38:01.023Z,3.57
2019-02-06T03:39:01.006Z,3.65
2019-02-06T03:40:00.996Z,3.58
2019-02-06T03:41:00.980Z,3.68
2019-02-06T03:42:00.974Z,3.65
2019-02-06T03:43:00.964Z,3.57
2019-02-06T03:44:00.965Z,3.65
2019-02-06T03:45:00.938Z,3.70
2019-02-06T03:46:00.927Z,3.70
2019-02-06T03:47:00.940Z,3.68
2019-02-06T03:48:00.957Z,3.65
2019-02-06T03:49:00.975Z,3.65
2019-02-06T03:50:01.009Z,3.61
2019-02-06T03:51:00.872Z,3.64
2019-02-06T03:52:00.858Z,3.71
2019-02-06T03:53:00.851Z,3.65
2019-02-06T03:54:00.837Z,3.71
2019-02-06T03:55:00.850Z,3.75
2019-02-06T03:56:00.817Z,3.71
2019-02-06T03:57:00.804Z,3.65
2019-02-06T03:58:00.793Z,3.65
2019-02-06T03:59:00.784Z,3.68
2019-02-06T04:00:00.770Z,3.65
2019-02-06T04:01:00.765Z,3.67
2019-02-06T04:02:00.755Z,3.68
2019-02-06T04:03:00.737Z,3.62
2019-02-06T04:04:00.729Z,3.64
2019-02-06T04:05:00.718Z,3.72
2019-02-06T04:06:00.719Z,3.61
2019-02-06T04:07:01.016Z,3.62
2019-02-06T04:08:00.690Z,3.57
2019-02-06T04:09:00.672Z,3.71
2019-02-06T04:10:00.676Z,3.57
2019-02-06T04:11:00.647Z,3.70
2019-02-06T04:12:00.639Z,3.67
2019-02-06T04:13:00.632Z,3.65
2019-02-06T04:14:00.615Z,3.75
2019-02-06T04:15:00.608Z,3.61
2019-02-06T04:16:00.597Z,3.64
2019-02-06T04:17:00.581Z,3.68
2019-02-06T04:18:00.572Z,3.70
2019-02-06T04:19:00.561Z,3.61
2019-02-06T04:20:00.547Z,3.72
2019-02-06T04:21:00.545Z,3.70
2019-02-06T04:22:00.525Z,3.62
2019-02-06T04:23:00.527Z,3.67
2019-02-06T04:24:00.509Z,3.64
2019-02-06T04:25:00.492Z,3.62
2019-02-06T04:26:00.482Z,3.61
2019-02-06T04:27:00.471Z,3.53
2019-02-06T04:28:00.461Z,3.58
2019-02-06T04:29:00.453Z,3.67
2019-02-06T04:30:00.438Z,3.61
2019-02-06T04:31:00.431Z,3.57
2019-02-06T04:32:00.419Z,3.61
2019-02-06T04:33:00.405Z,3.68
2019-02-06T04:34:00.395Z,3.52
2019-02-06T04:35:00.382Z,3.54
2019-02-06T04:36:00.373Z,3.57
2019-02-06T04:37:06.702Z,3.57
2019-02-06T04:38:01.353Z,3.54
2019-02-06T04:39:00.339Z,3.52
2019-02-06T04:40:00.337Z,3.52
2019-02-06T04:41:00.314Z,3.46
2019-02-06T04:42:00.310Z,3.49
2019-02-06T04:43:00.293Z,3.42
2019-02-06T04:44:00.283Z,3.40
2019-02-06T04:45:00.347Z,3.49
2019-02-06T04:46:00.272Z,3.31
2019-02-06T04:47:00.249Z,3.30
2019-02-06T04:48:00.238Z,3.27
2019-02-06T04:49:00.238Z,3.24
2019-02-06T04:50:00.281Z,3.33
2019-02-06T04:51:00.214Z,3.24
2019-02-06T04:52:00.193Z,3.21
2019-02-06T04:53:00.184Z,3.18
2019-02-06T04:54:00.171Z,3.05
2019-02-06T04:55:00.347Z,3.21
2019-02-06T04:56:00.148Z,3.25
2019-02-06T04:57:00.150Z,3.16
2019-02-06T04:58:00.127Z,3.07
2019-02-06T04:59:00.114Z,3.07
2019-02-06T05:00:00.335Z,3.03
2019-02-06T05:01:00.093Z,2.94
2019-02-06T05:02:00.088Z,2.97
2019-02-06T05:03:00.074Z,2.98
2019-02-06T05:04:00.060Z,2.94
2019-02-06T05:05:00.110Z,2.92
2019-02-06T05:06:00.041Z,2.92
2019-02-06T05:07:00.026Z,2.91
2019-02-06T05:08:00.015Z,2.77
2019-02-06T05:09:00.006Z,2.69
2019-02-06T05:09:59.993Z,2.63
2019-02-06T05:10:59.982Z,2.73
2019-02-06T05:11:59.974Z,2.64
2019-02-06T05:12:59.961Z,2.71
2019-02-06T05:13:59.952Z,2.56
2019-02-06T05:14:59.939Z,2.53
2019-02-06T05:15:59.928Z,2.56
2019-02-06T05:16:59.921Z,2.61
2019-02-06T05:17:59.904Z,2.53
2019-02-06T05:18:59.895Z,2.53
2019-02-06T05:19:59.884Z,2.55
2019-02-06T05:20:59.871Z,2.52
2019-02-06T05:21:59.861Z,2.63
2019-02-06T05:22:59.849Z,2.63
2019-02-06T05:23:59.845Z,2.53
2019-02-06T05:24:59.849Z,2.56
2019-02-06T05:25:59.816Z,2.49
2019-02-06T05:26:59.805Z,2.58
2019-02-06T05:27:59.797Z,2.61
2019-02-06T05:28:59.783Z,2.52
2019-02-06T05:29:59.772Z,2.46
2019-02-06T05:30:59.769Z,2.45
2019-02-06T05:31:59.749Z,2.51
2019-02-06T05:32:59.738Z,2.41
2019-02-06T05:33:59.727Z,2.44
2019-02-06T05:34:59.716Z,2.37
2019-02-06T05:35:59.707Z,2.28
2019-02-06T05:36:59.695Z,2.33
2019-02-06T05:37:59.686Z,2.22
2019-02-06T05:38:59.673Z,2.26
2019-02-06T05:39:59.679Z,2.20
2019-02-06T05:40:59.652Z,2.17
2019-02-06T05:41:59.638Z,2.16
2019-02-06T05:42:59.629Z,2.22
2019-02-06T05:43:59.625Z,2.13
2019-02-06T05:44:59.607Z,2.02
2019-02-06T05:45:59.603Z,2.04
2019-02-06T05:46:59.583Z,2.12
2019-02-06T05:47:59.578Z,2.10
2019-02-06T05:48:59.571Z,2.06
2019-02-06T05:49:59.555Z,2.01
2019-02-06T05:50:59.581Z,1.97
2019-02-06T05:51:59.528Z,1.93
2019-02-06T05:52:59.517Z,1.82
2019-02-06T05:53:59.507Z,1.83
2019-02-06T05:54:59.497Z,1.78
2019-02-06T05:55:59.483Z,1.80
2019-02-06T05:56:59.475Z,1.79
2019-02-06T05:57:59.461Z,1.80
2019-02-06T05:58:59.454Z,1.79
2019-02-06T05:59:59.445Z,1.82
2019-02-06T06:00:59.431Z,1.80
2019-02-06T06:01:59.425Z,1.79
2019-02-06T06:02:59.443Z,1.76
2019-02-06T06:03:59.399Z,1.79
2019-02-06T06:04:59.385Z,1.76
2019-02-06T06:05:59.378Z,1.80
2019-02-06T06:06:59.364Z,1.75
2019-02-06T06:07:59.359Z,1.79
2019-02-06T06:08:59.346Z,1.85
2019-02-06T06:09:59.329Z,1.82
2019-02-06T06:10:59.320Z,1.79
2019-02-06T06:11:59.321Z,1.78
2019-02-06T06:13:49.840Z,1.79
2019-02-06T06:14:49.827Z,1.87
2019-02-06T06:15:49.814Z,1.79
2019-02-06T06:16:49.812Z,1.82
2019-02-06T06:17:49.795Z,1.78
2019-02-06T06:18:49.783Z,1.76
2019-02-06T06:19:49.769Z,1.83
2019-02-06T06:20:49.770Z,1.76
2019-02-06T06:21:49.748Z,1.83
2019-02-06T06:22:49.748Z,1.78
2019-02-06T06:23:49.750Z,1.79
2019-02-06T06:24:49.720Z,1.65
2019-02-06T06:25:49.703Z,1.76
2019-02-06T06:26:49.692Z,1.68
2019-02-06T06:27:49.831Z,1.62
2019-02-06T06:28:49.671Z,1.69
2019-02-06T06:29:49.662Z,1.60
2019-02-06T06:30:49.666Z,1.62
2019-02-06T06:31:49.638Z,1.57
2019-02-06T06:32:49.638Z,1.61
2019-02-06T06:33:49.614Z,1.52
2019-02-06T06:34:49.603Z,1.65
2019-02-06T06:35:49.598Z,1.62
2019-02-06T06:36:49.586Z,1.50
2019-02-06T06:37:59.805Z,1.65
2019-02-06T06:38:50.558Z,1.57
2019-02-06T06:39:49.549Z,1.60
2019-02-06T06:40:49.541Z,1.55
2019-02-06T06:41:50.009Z,1.55
2019-02-06T06:42:49.515Z,1.47
2019-02-06T06:43:49.509Z,1.55
2019-02-06T06:44:49.493Z,1.57
2019-02-06T06:45:49.485Z,1.47
2019-02-06T06:46:49.468Z,1.58
2019-02-06T06:47:49.459Z,1.42
2019-02-06T06:48:49.462Z,1.40
2019-02-06T06:49:49.435Z,1.40
2019-02-06T06:50:49.430Z,1.42
2019-02-06T06:51:49.416Z,1.57
2019-02-06T06:52:49.406Z,1.46
2019-02-06T06:53:49.390Z,1.43
2019-02-06T06:54:49.379Z,1.46
2019-02-06T06:55:49.369Z,1.42
2019-02-06T06:56:49.357Z,1.47
2019-02-06T06:57:49.344Z,1.54
2019-02-06T06:58:49.333Z,1.42
2019-02-06T06:59:49.322Z,1.37
2019-02-06T07:00:49.314Z,1.40
2019-02-06T07:01:49.366Z,1.46
2019-02-06T07:02:49.912Z,1.46
2019-02-06T07:03:49.281Z,1.40
2019-02-06T07:04:49.268Z,1.52
2019-02-06T07:05:49.259Z,1.46
2019-02-06T07:06:49.247Z,1.42
2019-02-06T07:07:49.239Z,1.43
2019-02-06T07:08:49.229Z,1.43
2019-02-06T07:09:49.223Z,1.64
2019-02-06T07:10:49.202Z,1.52
2019-02-06T07:11:49.191Z,1.71
2019-02-06T07:12:49.177Z,1.78
2019-02-06T07:13:51.453Z,1.85
2019-02-06T07:14:49.156Z,1.93
2019-02-06T07:15:49.147Z,1.89
2019-02-06T07:16:49.134Z,1.91
2019-02-06T07:17:49.124Z,1.83
2019-02-06T07:18:49.111Z,1.89
2019-02-06T07:19:49.103Z,1.98
2019-02-06T07:20:49.107Z,1.97
2019-02-06T07:21:49.079Z,2.04
2019-02-06T07:22:49.067Z,2.12
2019-02-06T07:23:49.057Z,2.08
2019-02-06T07:24:49.044Z,2.20
2019-02-06T07:25:49.037Z,2.20
2019-02-06T07:26:49.024Z,2.23
2019-02-06T07:27:49.040Z,2.19
2019-02-06T07:28:49.001Z,2.19
2019-02-06T07:29:48.988Z,2.26
2019-02-06T07:30:48.984Z,2.37
2019-02-06T07:31:48.968Z,2.46
2019-02-06T07:32:48.957Z,2.51
2019-02-06T07:33:48.945Z,2.49
2019-02-06T07:34:48.935Z,2.45
2019-02-06T07:35:48.924Z,2.41
2019-02-06T07:36:48.916Z,2.51
2019-02-06T07:37:48.907Z,2.46
2019-02-06T07:38:48.891Z,2.58
2019-02-06T07:39:48.879Z,2.49
2019-02-06T07:40:48.869Z,2.52
2019-02-06T07:41:48.868Z,2.59
2019-02-06T07:42:48.846Z,2.58
2019-02-06T07:43:48.835Z,2.52
2019-02-06T07:44:48.823Z,2.40
2019-02-06T07:45:48.811Z,2.53
2019-02-06T07:46:48.815Z,2.52
2019-02-06T07:47:48.790Z,2.45
2019-02-06T07:48:48.785Z,2.56
2019-02-06T07:49:48.767Z,2.46
2019-02-06T07:50:48.760Z,2.46
2019-02-06T07:51:50.526Z,2.38
2019-02-06T07:52:48.735Z,2.37
2019-02-06T07:53:48.731Z,2.35
2019-02-06T07:54:48.718Z,2.41
2019-02-06T07:55:48.702Z,2.45
2019-02-06T07:56:48.691Z,2.44
2019-02-06T07:57:48.751Z,2.52
2019-02-06T07:58:50.761Z,2.64
2019-02-06T07:59:48.662Z,2.74
2019-02-06T08:00:48.648Z,2.79
2019-02-06T08:01:48.636Z,2.88
2019-02-06T08:02:48.627Z,3.02
2019-02-06T08:03:48.614Z,3.12
2019-02-06T08:04:48.603Z,3.18
2019-02-06T08:05:48.597Z,3.23
2019-02-06T08:06:48.579Z,3.28
2019-02-06T08:07:48.568Z,3.13
2019-02-06T08:08:48.557Z,3.30
2019-02-06T08:09:48.613Z,3.34
2019-02-06T08:10:48.542Z,3.44
2019-02-06T08:11:48.526Z,3.49
2019-02-06T08:12:48.515Z,3.57
2019-02-06T08:13:48.503Z,3.50
2019-02-06T08:14:48.495Z,3.47
2019-02-06T08:15:48.479Z,3.44
2019-02-06T08:16:48.469Z,3.52
2019-02-06T08:17:48.457Z,3.54
2019-02-06T08:18:48.446Z,3.58
2019-02-06T08:19:48.436Z,3.67
2019-02-06T08:20:48.424Z,3.47
2019-02-06T08:21:49.772Z,3.49
2019-02-06T08:22:48.408Z,3.60
2019-02-06T08:23:48.392Z,3.65
2019-02-06T08:24:48.383Z,3.76
2019-02-06T08:25:48.383Z,3.85
2019-02-06T08:26:48.360Z,3.83
2019-02-06T08:27:48.349Z,3.68
2019-02-06T08:28:48.336Z,3.80
2019-02-06T08:29:48.325Z,3.88
2019-02-06T08:30:48.313Z,3.86
2019-02-06T08:31:48.303Z,3.88
2019-02-06T08:32:48.292Z,4.04
2019-02-06T08:33:48.284Z,4.07
2019-02-06T08:34:48.269Z,4.15
2019-02-06T08:35:48.258Z,3.92
2019-02-06T08:36:48.247Z,3.90
2019-02-06T08:37:48.235Z,3.94
2019-02-06T08:38:48.809Z,4.06
2019-02-06T08:39:48.218Z,4.08
2019-02-06T08:40:48.234Z,4.04
2019-02-06T08:41:48.195Z,3.94
2019-02-06T08:42:48.188Z,4.00
2019-02-06T08:43:48.168Z,4.06
2019-02-06T08:44:48.158Z,4.00
2019-02-06T08:45:48.318Z,3.68
2019-02-06T08:46:48.135Z,3.75
2019-02-06T08:47:48.133Z,3.80
2019-02-06T08:48:48.115Z,3.82
2019-02-06T08:49:48.114Z,3.97
2019-02-06T08:50:48.096Z,4.01
2019-02-06T08:51:48.081Z,4.00
2019-02-06T08:52:48.071Z,4.03
2019-02-06T08:53:48.059Z,3.90
2019-02-06T08:54:48.110Z,3.89
2019-02-06T08:55:48.046Z,3.97
2019-02-06T08:56:48.027Z,3.89
2019-02-06T08:57:48.013Z,3.82
2019-02-06T08:58:48.006Z,3.85
2019-02-06T08:59:48.004Z,3.85
2019-02-06T09:00:47.982Z,3.89
2019-02-06T09:01:47.972Z,3.83
2019-02-06T09:02:47.959Z,3.88
2019-02-06T09:03:47.947Z,3.97
2019-02-06T09:04:55.454Z,4.03
2019-02-06T09:05:48.923Z,3.86
2019-02-06T09:06:47.917Z,3.82
2019-02-06T09:07:47.904Z,3.89
2019-02-06T09:08:58.999Z,4.01
2019-02-06T09:09:48.882Z,3.79
2019-02-06T09:10:47.869Z,3.86
2019-02-06T09:11:47.862Z,3.92
2019-02-06T09:12:47.974Z,4.01
2019-02-06T09:13:47.836Z,3.96
2019-02-06T09:14:47.827Z,4.08
2019-02-06T09:15:47.816Z,4.25
2019-02-06T09:16:47.811Z,4.40
2019-02-06T09:17:47.794Z,4.39
2019-02-06T09:18:47.783Z,4.50
2019-02-06T09:19:47.771Z,4.55
2019-02-06T09:20:47.758Z,4.47
2019-02-06T09:21:47.749Z,4.34
2019-02-06T09:22:47.744Z,4.42
2019-02-06T09:23:47.741Z,4.37
2019-02-06T09:24:47.718Z,4.39
2019-02-06T09:25:47.710Z,4.47
2019-02-06T09:26:47.696Z,4.50
2019-02-06T09:27:47.686Z,4.51
2019-02-06T09:28:47.672Z,4.44
2019-02-06T09:29:47.661Z,4.50
2019-02-06T09:30:47.647Z,4.43
2019-02-06T09:31:47.636Z,4.51
2019-02-06T09:32:47.626Z,4.52
2019-02-06T09:33:47.616Z,4.51
2019-02-06T09:34:47.603Z,4.64
2019-02-06T09:35:47.597Z,4.55
2019-02-06T09:36:47.581Z,4.59
2019-02-06T09:37:47.573Z,4.70
2019-02-06T09:38:47.561Z,4.77
2019-02-06T09:39:47.551Z,4.95
2019-02-06T09:40:49.489Z,5.01
2019-02-06T09:41:47.526Z,5.05
2019-02-06T09:42:47.514Z,5.09
2019-02-06T09:43:47.504Z,5.14
2019-02-06T09:44:47.493Z,5.09
2019-02-06T09:45:47.484Z,5.17
2019-02-06T09:46:47.473Z,5.25
2019-02-06T09:47:47.460Z,5.25
2019-02-06T09:48:47.452Z,5.14
2019-02-06T09:49:49.809Z,5.34
2019-02-06T09:50:47.431Z,5.35
2019-02-06T09:51:47.415Z,5.12
2019-02-06T09:52:47.405Z,5.16
2019-02-06T09:53:47.391Z,5.22
2019-02-06T09:54:47.381Z,5.32
2019-02-06T09:55:47.370Z,5.49
2019-02-06T09:56:50.506Z,5.52
2019-02-06T09:57:47.355Z,5.64
2019-02-06T09:58:47.337Z,5.71
2019-02-06T09:59:47.325Z,5.68
2019-02-06T10:00:47.320Z,5.73
2019-02-06T10:01:47.302Z,5.68
2019-02-06T10:02:47.294Z,5.71
2019-02-06T10:03:47.288Z,5.70
2019-02-06T10:04:47.278Z,5.73
2019-02-06T10:05:47.259Z,5.56
2019-02-06T10:06:47.250Z,5.57
2019-02-06T10:07:47.242Z,5.52
2019-02-06T10:08:47.232Z,5.53
2019-02-06T10:09:47.215Z,5.59
2019-02-06T10:10:47.232Z,5.56
2019-02-06T10:11:47.196Z,5.68
2019-02-06T10:12:47.192Z,5.77
2019-02-06T10:13:47.169Z,5.88
2019-02-06T10:14:47.162Z,6.03
2019-02-06T10:15:47.151Z,6.07
2019-02-06T10:16:47.136Z,5.88
2019-02-06T10:17:47.126Z,5.83
2019-02-06T10:18:47.116Z,5.89
2019-02-06T10:19:47.107Z,5.67
2019-02-06T10:20:47.091Z,5.50
2019-02-06T10:21:50.376Z,5.64
2019-02-06T10:22:48.067Z,5.70
2019-02-06T10:23:47.061Z,5.70
2019-02-06T10:24:47.046Z,5.83
2019-02-06T10:25:47.039Z,5.83
2019-02-06T10:26:47.024Z,5.78
2019-02-06T10:27:47.013Z,5.88
2019-02-06T10:28:47.002Z,5.57
2019-02-06T10:29:46.990Z,5.57
2019-02-06T10:30:46.981Z,5.59
2019-02-06T10:31:46.974Z,5.68
2019-02-06T10:32:46.959Z,5.67
2019-02-06T10:33:46.946Z,5.77
2019-02-06T10:34:46.937Z,5.68
2019-02-06T10:35:46.926Z,5.71
2019-02-06T10:36:46.921Z,5.78
2019-02-06T10:37:46.903Z,5.70
2019-02-06T10:38:46.891Z,5.81
2019-02-06T10:39:46.881Z,5.74
2019-02-06T10:40:46.926Z,5.83
2019-02-06T10:41:46.857Z,5.83
2019-02-06T10:42:46.848Z,5.83
2019-02-06T10:43:46.834Z,5.88
2019-02-06T10:44:46.822Z,5.83
2019-02-06T10:45:46.816Z,5.88
2019-02-06T10:46:46.803Z,5.95
2019-02-06T10:47:46.796Z,6.06
2019-02-06T10:48:46.780Z,6.10
2019-02-06T10:49:46.767Z,6.16
2019-02-06T10:50:46.757Z,6.18
2019-02-06T10:53:14.214Z,6.22
2019-02-06T10:54:33.347Z,6.26
2019-02-06T10:57:24.164Z,6.29
2019-02-06T10:58:43.297Z,6.29
2019-02-06T11:00:06.190Z,6.33
2019-02-06T11:01:06.176Z,6.22
2019-02-06T11:02:06.168Z,6.22
2019-02-06T11:03:06.159Z,6.30
2019-02-06T11:04:06.161Z,6.22
2019-02-06T11:05:06.134Z,6.25
2019-02-06T11:06:06.123Z,6.36
2019-02-06T11:07:08.221Z,6.38
2019-02-06T11:08:06.103Z,6.32
2019-02-06T11:09:06.094Z,6.46
2019-02-06T11:10:06.082Z,6.43
2019-02-06T11:11:06.067Z,6.44
2019-02-06T11:12:06.058Z,6.46
2019-02-06T11:13:06.051Z,6.50
2019-02-06T11:14:26.691Z,6.47
2019-02-06T11:15:48.077Z,6.44
2019-02-06T11:16:48.058Z,6.46
2019-02-06T11:17:48.048Z,6.46
2019-02-06T11:18:48.042Z,6.43
2019-02-06T11:19:48.029Z,6.44
2019-02-06T11:20:48.013Z,6.44
2019-02-06T11:21:48.004Z,6.43
2019-02-06T11:22:48.009Z,6.51
2019-02-06T11:23:47.981Z,6.48
2019-02-06T11:24:47.973Z,6.43
2019-02-06T11:25:47.962Z,6.44
2019-02-06T11:26:47.951Z,6.43
2019-02-06T11:27:47.939Z,6.48
2019-02-06T11:28:47.927Z,6.43
2019-02-06T11:29:48.489Z,6.44
2019-02-06T11:30:47.908Z,6.48
2019-02-06T11:31:47.891Z,6.46
2019-02-06T11:32:47.883Z,6.51
2019-02-06T11:33:47.870Z,6.54
2019-02-06T11:34:47.860Z,6.59
2019-02-06T11:35:47.856Z,6.59
2019-02-06T11:36:47.838Z,6.62
2019-02-06T11:37:47.826Z,6.48
2019-02-06T11:38:47.815Z,6.59
2019-02-06T11:39:57.710Z,6.58
2019-02-06T11:40:48.799Z,6.48
2019-02-06T11:41:47.784Z,6.62
2019-02-06T11:42:47.769Z,6.56
2019-02-06T11:43:47.759Z,6.59
2019-02-06T11:44:47.748Z,6.48
2019-02-06T11:45:47.741Z,6.50
2019-02-06T11:46:47.730Z,6.59
2019-02-06T11:47:47.722Z,6.65
2019-02-06T11:48:47.707Z,6.65
2019-02-06T11:49:47.693Z,6.72
2019-02-06T11:50:47.682Z,6.72
2019-02-06T11:51:47.673Z,6.77
2019-02-06T11:52:47.662Z,6.83
2019-02-06T11:53:47.648Z,6.94
2019-02-06T11:54:47.640Z,6.73
2019-02-06T11:55:47.629Z,6.84
2019-02-06T11:56:47.615Z,6.77
2019-02-06T11:57:47.607Z,6.91
2019-02-06T11:58:47.597Z,6.95
2019-02-06T11:59:47.585Z,6.99
2019-02-06T12:00:48.616Z,6.90
2019-02-06T12:01:47.561Z,6.90
2019-02-06T12:02:47.548Z,6.91
2019-02-06T12:03:47.550Z,6.94
2019-02-06T12:04:47.532Z,6.91
2019-02-06T12:05:47.523Z,6.91
2019-02-06T12:06:47.506Z,6.97
2019-02-06T12:07:47.495Z,6.76
2019-02-06T12:08:47.485Z,6.69
2019-02-06T12:09:47.478Z,6.77
2019-02-06T12:10:47.465Z,6.83
2019-02-06T12:11:47.455Z,6.69
2019-02-06T12:12:47.439Z,6.69
2019-02-06T12:15:14.916Z,6.54
2019-02-06T12:16:14.928Z,6.46
2019-02-06T12:17:14.907Z,6.47
2019-02-06T12:18:14.877Z,6.40
2019-02-06T12:19:14.879Z,6.36
2019-02-06T12:20:14.852Z,6.36
2019-02-06T12:21:17.820Z,6.43
2019-02-06T12:22:14.833Z,6.32
2019-02-06T12:23:14.830Z,6.26
2019-02-06T12:24:14.875Z,6.30
2019-02-06T12:25:14.798Z,6.30
2019-02-06T12:26:14.789Z,6.32
2019-02-06T12:27:14.775Z,6.29
2019-02-06T12:28:14.764Z,6.22
2019-02-06T12:29:14.814Z,6.33
2019-02-06T12:30:14.763Z,6.26
2019-02-06T12:31:14.731Z,6.29
2019-02-06T12:32:14.724Z,6.26
2019-02-06T12:33:14.711Z,6.29
2019-02-06T12:34:14.703Z,6.33
2019-02-06T12:35:14.695Z,6.28
2019-02-06T12:36:15.849Z,6.29
2019-02-06T12:37:14.663Z,6.25
2019-02-06T12:38:14.659Z,6.38
2019-02-06T12:39:14.643Z,6.35
2019-02-06T12:40:21.622Z,6.50
2019-02-06T12:41:15.624Z,6.46
2019-02-06T12:42:14.610Z,6.46
2019-02-06T12:43:14.599Z,6.29
2019-02-06T12:44:14.587Z,6.36
2019-02-06T12:45:14.577Z,6.36
2019-02-06T12:46:14.563Z,6.36
2019-02-06T12:47:14.555Z,6.44
2019-02-06T12:48:14.547Z,6.38
2019-02-06T12:49:14.742Z,6.46
2019-02-06T12:50:14.521Z,6.38
2019-02-06T12:51:14.512Z,6.46
2019-02-06T12:52:14.500Z,6.51
2019-02-06T12:53:14.492Z,6.48
2019-02-06T12:54:14.488Z,6.43
2019-02-06T12:55:14.468Z,6.51
2019-02-06T12:56:14.454Z,6.51
2019-02-06T12:57:14.456Z,6.46
2019-02-06T12:58:14.437Z,6.43
2019-02-06T12:59:14.427Z,6.46
2019-02-06T13:00:14.431Z,6.44
2019-02-06T13:01:14.400Z,6.46
2019-02-06T13:02:14.387Z,6.41
2019-02-06T13:03:14.377Z,6.41
2019-02-06T13:04:14.373Z,6.40
2019-02-06T13:05:14.356Z,6.35
2019-02-06T13:06:14.343Z,6.40
2019-02-06T13:07:14.334Z,6.38
2019-02-06T13:08:17.138Z,6.32
2019-02-06T13:09:14.311Z,6.40
2019-02-06T13:10:14.302Z,6.44
2019-02-06T13:11:14.293Z,6.36
2019-02-06T13:12:14.277Z,6.41
2019-02-06T13:13:14.267Z,6.28
2019-02-06T13:14:14.256Z,6.41
2019-02-06T13:15:14.244Z,6.43
2019-02-06T13:16:14.235Z,6.41
2019-02-06T13:17:14.248Z,6.28
2019-02-06T13:18:14.211Z,6.35
2019-02-06T13:19:14.199Z,6.30
2019-02-06T13:20:14.191Z,6.29
2019-02-06T13:21:14.178Z,6.16
2019-02-06T13:22:14.169Z,6.19
2019-02-06T13:23:14.160Z,6.21
2019-02-06T13:24:14.166Z,6.13
2019-02-06T13:25:14.134Z,6.16
2019-02-06T13:26:14.125Z,6.13